Time;durP1;ratioP1;P1;durP2;ratioP2;P2;SDS_P1;SDS_P2;PMS_P1;PMS_P2;Temp;Humidity;BMP_temperature;BMP_pressure;BME280_temperature;BME280_humidity;BME280_pressure;Samples;Min_cycle;Max_cycle;Signal;HPM_P1;HPM_P2
2021/12/09 00:14:50;;;;;;;29.77;10.33;;;;;;;-4.62;75.18;100065.94;714146;1177;114084;-71
2021/12/09 00:29:53;;;;;;;30.97;9.30;;;;;;;-4.41;74.44;100058.48;713804;1202;113917;-71
2021/12/09 00:44:55;;;;;;;22.78;8.35;;;;;;;-4.37;74.65;100047.27;713934;1205;115144;-71
2021/12/09 00:59:59;;;;;;;19.07;8.37;;;;;;;-4.11;74.69;100030.27;713921;1205;114276;-71
2021/12/09 01:15:03;;;;;;;24.47;7.33;;;;;;;-3.91;75.30;100012.50;714064;1200;27336;-71
2021/12/09 01:30:11;;;;;;;19.93;7.90;;;;;;;-3.67;75.02;100004.89;713741;1176;114590;-71
2021/12/09 01:45:13;;;;;;;15.50;7.23;;;;;;;-3.37;75.91;99999.61;713731;1202;115200;-71
2021/12/09 02:00:21;;;;;;;23.40;9.35;;;;;;;-3.16;75.69;99998.02;713657;1200;114212;-71
2021/12/09 02:15:25;;;;;;;15.93;7.70;;;;;;;-3.12;75.36;99975.66;713818;1202;115809;-71
2021/12/09 02:30:28;;;;;;;15.20;6.87;;;;;;;-3.04;75.30;99958.23;713764;1202;114061;-72
2021/12/09 02:45:30;;;;;;;17.17;7.80;;;;;;;-3.13;75.47;99944.00;713782;1203;113915;-71
2021/12/09 03:00:33;;;;;;;16.15;7.60;;;;;;;-3.12;75.01;99953.38;713788;1177;114090;-70
2021/12/09 03:15:35;;;;;;;16.50;6.47;;;;;;;-3.10;74.85;99953.32;713825;1202;113833;-70
2021/12/09 03:30:38;;;;;;;22.25;9.03;;;;;;;-3.25;74.94;99934.20;713890;1177;113920;-70
2021/12/09 03:45:40;;;;;;;17.30;7.10;;;;;;;-3.25;74.79;99919.63;714281;1204;113842;-70
2021/12/09 04:00:43;;;;;;;18.30;8.10;;;;;;;-3.31;75.46;99922.44;714616;1200;115349;-70
2021/12/09 04:15:45;;;;;;;18.47;7.20;;;;;;;-3.16;75.65;99933.03;714678;1176;116305;-72
2021/12/09 04:30:48;;;;;;;21.53;7.77;;;;;;;-3.09;75.79;99935.33;714524;1205;113664;-74
2021/12/09 04:45:51;;;;;;;29.75;11.98;;;;;;;-3.03;76.33;99934.25;714822;1206;115093;-73
2021/12/09 05:00:57;;;;;;;108.15;39.75;;;;;;;-3.16;76.53;99930.47;714068;1200;115649;-71
2021/12/09 05:16:01;;;;;;;222.20;60.63;;;;;;;-2.99;76.67;99935.80;713847;1174;114278;-71
2021/12/09 05:46:27;;;;;;;77.47;26.67;;;;;;;-3.15;77.63;99952.65;714557;1200;114420;-72
2021/12/09 06:01:30;;;;;;;67.60;21.97;;;;;;;-2.98;78.48;99973.42;714196;1200;115063;-72
2021/12/09 06:16:33;;;;;;;88.95;23.55;;;;;;;-2.96;79.21;99973.36;713970;1202;114495;-72
2021/12/09 06:31:35;;;;;;;75.37;22.50;;;;;;;-2.88;79.34;99973.91;713979;1176;114746;-72
2021/12/09 06:46:38;;;;;;;59.30;19.30;;;;;;;-2.83;79.66;99966.05;713657;1200;115367;-71
2021/12/09 07:01:40;;;;;;;55.43;17.50;;;;;;;-2.71;80.08;99970.70;713885;1202;114358;-72
2021/12/09 07:16:43;;;;;;;76.73;26.33;;;;;;;-2.52;80.49;99955.41;713835;1202;115456;-71
2021/12/09 07:31:45;;;;;;;229.43;94.93;;;;;;;-2.48;80.94;99986.95;714449;1200;115369;-73
2021/12/09 07:46:48;;;;;;;98.60;27.15;;;;;;;-2.41;81.61;99980.70;714734;1177;114311;-70
2021/12/09 08:01:51;;;;;;;38.47;15.43;;;;;;;-2.30;81.75;99975.95;715073;1205;114169;-70
2021/12/09 08:17:11;;;;;;;130.88;35.98;;;;;;;-2.24;82.21;99965.45;715186;1206;113929;-69
2021/12/09 08:32:14;;;;;;;353.87;90.40;;;;;;;-2.00;82.58;99947.35;715471;1200;114035;-73
2021/12/09 08:47:16;;;;;;;141.48;41.78;;;;;;;-1.93;82.98;99928.18;715251;1199;114838;-73
2021/12/09 09:02:19;;;;;;;96.43;29.48;;;;;;;-1.87;83.41;99927.94;714858;1200;115296;-73
2021/12/09 09:17:21;;;;;;;254.93;70.98;;;;;;;-1.73;83.70;99931.66;714824;1200;114718;-73
2021/12/09 09:32:23;;;;;;;355.10;103.73;;;;;;;-1.71;84.67;99927.29;714927;1206;114693;-73
2021/12/09 09:47:27;;;;;;;85.53;31.40;;;;;;;-1.48;85.17;99922.88;715299;1202;115012;-71
2021/12/09 10:02:29;;;;;;;65.27;22.10;;;;;;;-1.42;84.54;99917.48;714846;1205;114037;-74
2021/12/09 10:17:32;;;;;;;398.35;176.05;;;;;;;-1.19;85.01;99917.28;714988;1201;114882;-75
2021/12/09 10:32:44;;;;;;;99.68;32.43;;;;;;;-1.21;86.29;99898.48;715262;1205;116993;-74
2021/12/09 10:48:03;;;;;;;68.80;24.53;;;;;;;-0.84;86.02;99899.36;715065;1200;114711;-74
2021/12/09 11:03:27;;;;;;;90.50;27.20;;;;;;;-0.81;86.20;99887.26;715032;1200;114249;-74
2021/12/09 11:18:36;;;;;;;172.40;50.05;;;;;;;-0.54;87.03;99873.05;714625;1202;115379;-76
2021/12/09 11:33:44;;;;;;;52.80;18.75;;;;;;;-0.41;87.00;99873.30;714899;1205;115065;-76
2021/12/09 11:48:46;;;;;;;95.07;30.20;;;;;;;-0.44;87.05;99844.25;714704;1176;114384;-76
2021/12/09 12:19:31;;;;;;;93.15;31.80;;;;;;;-0.31;87.71;99853.04;715240;1176;113883;-75
2021/12/09 12:50:30;;;;;;;119.63;37.93;;;;;;;-0.16;86.89;99833.38;714479;1205;115309;-74
2021/12/09 13:20:56;;;;;;;164.50;44.30;;;;;;;-0.16;88.66;99820.48;714937;1176;114716;-75
2021/12/09 13:54:05;;;;;;;259.73;85.30;;;;;;;-0.11;90.00;99828.83;715151;1200;115095;-76
2021/12/09 14:07:03;;;;;;;989.05;289.35;;;;;;;-0.05;89.31;99830.28;715129;1200;115589;-74
2021/12/09 14:22:05;;;;;;;229.48;83.00;;;;;;;-0.24;90.45;99840.67;715557;1200;114778;-74
2021/12/09 14:37:12;;;;;;;120.68;38.03;;;;;;;-0.23;91.62;99861.22;714792;1205;114234;-74
2021/12/09 14:52:25;;;;;;;;;;;;;;;-0.29;91.70;99811.71;714860;1177;114899;-74
2021/12/09 15:07:34;;;;;;;120.90;38.27;;;;;;;-0.31;92.03;99840.16;715191;1202;99961;-74
2021/12/09 15:23:00;;;;;;;96.70;34.30;;;;;;;-0.29;92.36;99828.03;715470;1180;114086;-76
2021/12/09 15:38:04;;;;;;;107.00;33.43;;;;;;;-0.37;93.03;99830.14;714956;1199;114209;-74
2021/12/09 15:53:07;;;;;;;248.80;83.35;;;;;;;-0.27;94.23;99812.48;714871;1192;115243;-72
2021/12/09 16:08:12;;;;;;;106.75;40.75;;;;;;;-0.28;94.63;99827.09;714803;1177;114271;-72
2021/12/09 16:23:15;;;;;;;64.65;25.93;;;;;;;-0.48;95.32;99809.23;715291;1200;113953;-72
2021/12/09 16:38:17;;;;;;;173.00;61.20;;;;;;;-0.53;94.99;99805.15;714940;1176;113919;-71
2021/12/09 16:53:25;;;;;;;333.98;88.28;;;;;;;-0.56;95.30;99797.55;714722;1177;114803;-71
2021/12/09 17:08:30;;;;;;;121.03;39.73;;;;;;;-0.60;96.15;99800.37;714988;1183;114977;-72
2021/12/09 17:23:32;;;;;;;73.07;25.87;;;;;;;-0.62;95.90;99795.30;715055;1205;114626;-71
2021/12/09 17:38:35;;;;;;;242.98;78.10;;;;;;;-0.58;95.66;99783.92;714811;1177;115544;-72
2021/12/09 17:53:37;;;;;;;330.63;93.38;;;;;;;-0.59;96.39;99760.81;714989;1200;115766;-69
2021/12/09 18:08:40;;;;;;;448.20;209.15;;;;;;;-0.70;95.96;99751.02;714951;1202;114161;-70
2021/12/09 18:23:42;;;;;;;290.85;72.00;;;;;;;-0.51;95.71;99761.26;715313;1178;114743;-69
2021/12/09 18:38:48;;;;;;;271.67;67.93;;;;;;;-0.44;95.13;99764.36;715038;1202;114551;-70
2021/12/09 18:53:55;;;;;;;229.87;57.07;;;;;;;-0.46;95.01;99746.40;715775;1180;114296;-70
2021/12/09 19:08:59;;;;;;;180.88;46.45;;;;;;;-0.47;94.75;99739.57;715271;1193;114751;-70
2021/12/09 19:24:02;;;;;;;125.45;38.95;;;;;;;-0.50;95.71;99742.31;715503;1200;114497;-70
2021/12/09 19:39:07;;;;;;;193.60;61.85;;;;;;;-0.43;95.73;99747.98;715669;1200;114763;-70
2021/12/09 19:54:10;;;;;;;201.38;48.65;;;;;;;-0.39;95.64;99732.27;715372;1206;114052;-71
2021/12/09 20:09:13;;;;;;;101.67;29.13;;;;;;;-0.40;96.21;99702.25;715433;1201;115425;-70
2021/12/09 20:24:15;;;;;;;190.30;54.43;;;;;;;-0.41;96.27;99676.55;715498;1203;115139;-70
2021/12/09 20:39:18;;;;;;;185.85;48.75;;;;;;;-0.36;96.49;99623.02;716049;1200;114929;-69
2021/12/09 20:54:20;;;;;;;200.80;53.50;;;;;;;-0.26;97.06;99624.20;715231;1200;113597;-70
2021/12/09 21:09:23;;;;;;;114.70;36.35;;;;;;;-0.24;99.05;99613.80;715575;1200;114266;-70
2021/12/09 21:24:25;;;;;;;107.70;35.47;;;;;;;-0.18;99.33;99603.98;715365;1202;117064;-71
2021/12/09 21:39:28;;;;;;;151.40;46.70;;;;;;;-0.11;99.83;99598.50;714896;1178;114178;-71
2021/12/09 21:54:31;;;;;;;115.03;34.35;;;;;;;-0.01;100.00;99589.35;714149;1177;114203;-70
2021/12/09 22:09:35;;;;;;;131.38;39.85;;;;;;;-0.01;100.00;99573.88;715037;1177;114360;-72
2021/12/09 22:24:38;;;;;;;54.90;21.88;;;;;;;0.05;100.00;99568.36;715476;1177;114930;-71
2021/12/09 22:39:42;;;;;;;59.63;22.63;;;;;;;0.05;100.00;99552.88;714493;1179;113832;-71
2021/12/09 22:54:48;;;;;;;70.77;24.70;;;;;;;0.09;100.00;99514.86;714387;1177;114023;-71
2021/12/09 23:09:51;;;;;;;50.88;20.90;;;;;;;0.11;100.00;99497.56;714091;1175;114614;-71
2021/12/09 23:24:59;;;;;;;40.90;17.78;;;;;;;0.13;100.00;99499.14;714272;1200;114168;-71
2021/12/09 23:40:01;;;;;;;52.63;19.88;;;;;;;0.25;100.00;99476.11;714046;1200;115995;-71
2021/12/09 23:55:06;;;;;;;57.60;20.03;;;;;;;0.26;100.00;99462.30;714337;1203;114009;-71
